Time;durP1;ratioP1;P1;durP2;ratioP2;P2;SDS_P1;SDS_P2;PMS_P1;PMS_P2;Temp;Humidity;BMP_temperature;BMP_pressure;BME280_temperature;BME280_humidity;BME280_pressure;Samples;Min_cycle;Max_cycle;Signal;HPM_P1;HPM_P2
2022/07/02 00:02:44;;;;;;;;;;;;;;;24.98;51.97;100453.87;5362565;32;35305;-75
2022/07/02 00:05:47;;;;;;;;;;;;;;;24.16;54.22;100473.44;5371587;32;34453;-76
2022/07/02 00:08:49;;;;;;;;;;;;;;;25.14;51.36;100470.22;5362627;32;35146;-76
2022/07/02 00:11:51;;;;;;;;;;;;;;;24.71;52.57;100474.37;5365779;32;34952;-71
2022/07/02 00:14:54;;;;;;;;;;;;;;;24.00;54.63;100463.28;5347119;32;35316;-70
2022/07/02 00:17:56;;;;;;;;;;;;;;;23.81;55.69;100469.53;5351019;32;36595;-77
2022/07/02 00:20:57;;;;;;;;;;;;;;;24.15;54.97;100456.50;5386209;32;35532;-71
2022/07/02 00:23:59;;;;;;;;;;;;;;;23.89;56.10;100474.19;5361816;32;35005;-71
2022/07/02 00:27:01;;;;;;;;;;;;;;;23.44;57.85;100482.78;5375337;32;34017;-70
2022/07/02 00:30:04;;;;;;;;;;;;;;;24.39;57.16;100479.34;5361539;32;34985;-70
2022/07/02 00:33:06;;;;;;;;;;;;;;;23.78;60.46;100481.41;5366095;32;34463;-71
2022/07/02 00:36:21;;;;;;;;;;;;;;;23.52;60.25;100458.81;5370204;32;43683;-76
2022/07/02 00:39:23;;;;;;;;;;;;;;;23.61;62.19;100435.62;5361456;32;34854;-75
2022/07/02 00:42:25;;;;;;;;;;;;;;;22.85;63.88;100427.37;5376693;32;35534;-77
2022/07/02 00:45:27;;;;;;;;;;;;;;;22.91;63.53;100421.50;5359846;32;36203;-71
2022/07/02 00:48:29;;;;;;;;;;;;;;;22.89;63.33;100423.47;5375741;32;34352;-72
2022/07/02 00:51:32;;;;;;;;;;;;;;;23.33;61.27;100426.63;5359876;32;36410;-71
2022/07/02 00:54:38;;;;;;;;;;;;;;;23.24;61.71;100423.78;5362481;32;35575;-76
2022/07/02 00:57:40;;;;;;;;;;;;;;;23.66;58.89;100412.78;5377324;32;44532;-73
2022/07/02 01:00:42;;;;;;;;;;;;;;;23.36;59.18;100420.97;5358434;32;34326;-72
2022/07/02 01:03:45;;;;;;;;;;;;;;;23.61;57.61;100420.41;5377522;32;36205;-77
2022/07/02 01:06:48;;;;;;;;;;;;;;;23.31;57.91;100428.59;5356528;32;34825;-77
2022/07/02 01:13:11;;;;;;;;;;;;;;;23.47;57.34;100429.72;5368926;32;45110;-72
2022/07/02 01:16:12;;;;;;;;;;;;;;;23.43;57.14;100417.56;5331972;32;34582;-69
2022/07/02 01:19:16;;;;;;;;;;;;;;;23.26;58.15;100425.50;5375410;32;36027;-78
2022/07/02 01:22:21;;;;;;;;;;;;;;;23.44;57.33;100446.09;5365995;32;34980;-77
2022/07/02 01:25:23;;;;;;;;;;;;;;;22.94;58.42;100456.06;5375969;32;34859;-78
2022/07/02 01:28:25;;;;;;;;;;;;;;;23.65;55.72;100459.41;5363157;32;35095;-74
2022/07/02 01:31:27;;;;;;;;;;;;;;;23.51;56.54;100470.53;5364929;32;35020;-75
2022/07/02 01:34:32;;;;;;;;;;;;;;;23.30;56.66;100464.44;5372869;32;34828;-76
2022/07/02 01:37:36;;;;;;;;;;;;;;;23.11;57.21;100455.38;5360978;32;34938;-71
2022/07/02 01:40:39;;;;;;;;;;;;;;;23.04;57.85;100459.59;5373693;32;44166;-71
2022/07/02 01:43:40;;;;;;;;;;;;;;;22.85;58.59;100486.31;5362095;32;33503;-78
2022/07/02 01:46:43;;;;;;;;;;;;;;;22.95;58.16;100514.03;5373886;32;33610;-80
2022/07/02 01:49:45;;;;;;;;;;;;;;;22.96;58.10;100488.94;5360937;32;34721;-76
2022/07/02 01:52:47;;;;;;;;;;;;;;;22.55;60.05;100505.97;5363188;32;34592;-77
2022/07/02 01:55:49;;;;;;;;;;;;;;;21.79;62.62;100498.13;5374082;32;35125;-70
2022/07/02 01:58:51;;;;;;;;;;;;;;;21.94;62.41;100514.72;5361312;32;35053;-71
2022/07/02 02:01:53;;;;;;;;;;;;;;;21.55;63.59;100494.84;5376111;32;34396;-71
2022/07/02 02:04:55;;;;;;;;;;;;;;;21.45;63.49;100473.38;5353052;32;34791;-71
2022/07/02 02:08:01;;;;;;;;;;;;;;;21.41;63.87;100484.44;5375316;32;34768;-71
2022/07/02 02:11:06;;;;;;;;;;;;;;;21.60;62.75;100482.78;5362074;32;35907;-71
2022/07/02 02:14:08;;;;;;;;;;;;;;;21.34;63.56;100465.38;5351135;32;43851;-75
2022/07/02 02:17:09;;;;;;;;;;;;;;;20.75;65.52;100458.56;5354537;32;35008;-76
2022/07/02 02:20:11;;;;;;;;;;;;;;;20.65;65.81;100448.75;5369831;32;34303;-75
2022/07/02 02:23:13;;;;;;;;;;;;;;;20.92;64.65;100430.47;5381608;32;34950;-76
2022/07/02 02:26:15;;;;;;;;;;;;;;;21.03;63.03;100392.19;5361402;32;34588;-76
2022/07/02 02:29:17;;;;;;;;;;;;;;;20.50;65.32;100379.59;5374927;32;35153;-78
2022/07/02 02:32:19;;;;;;;;;;;;;;;20.31;66.11;100389.16;5365845;32;35761;-71
2022/07/02 02:35:21;;;;;;;;;;;;;;;20.37;66.56;100391.34;5353936;32;34221;-79
2022/07/02 02:38:23;;;;;;;;;;;;;;;20.61;65.07;100402.75;5376661;32;35745;-71
2022/07/02 02:41:25;;;;;;;;;;;;;;;21.13;62.79;100435.06;5361528;32;34829;-72
2022/07/02 02:44:27;;;;;;;;;;;;;;;20.11;65.85;100438.78;5375937;32;35343;-72
2022/07/02 02:47:29;;;;;;;;;;;;;;;20.32;65.02;100438.91;5364014;32;35105;-76
2022/07/02 02:50:31;;;;;;;;;;;;;;;20.04;65.78;100453.56;5372964;32;34874;-77
2022/07/02 02:53:33;;;;;;;;;;;;;;;20.23;64.81;100436.00;5364438;32;34471;-71
2022/07/02 02:56:35;;;;;;;;;;;;;;;20.46;63.69;100444.03;5360622;32;35529;-71
2022/07/02 02:59:37;;;;;;;;;;;;;;;20.81;62.70;100454.56;5377589;32;37647;-72
2022/07/02 03:02:39;;;;;;;;;;;;;;;20.24;64.12;100459.03;5352017;32;34859;-76
2022/07/02 03:05:41;;;;;;;;;;;;;;;20.46;63.63;100457.37;5372019;32;35240;-77
2022/07/02 03:08:42;;;;;;;;;;;;;;;20.59;63.18;100491.94;5363244;32;34408;-76
2022/07/02 03:11:44;;;;;;;;;;;;;;;20.41;63.63;100488.88;5373082;32;34739;-73
2022/07/02 03:14:46;;;;;;;;;;;;;;;20.83;61.58;100495.34;5343800;32;33163;-72
2022/07/02 03:17:48;;;;;;;;;;;;;;;20.36;63.46;100510.59;5348717;32;34796;-73
2022/07/02 03:20:50;;;;;;;;;;;;;;;20.09;64.90;100510.06;5382401;32;34962;-71
2022/07/02 03:23:52;;;;;;;;;;;;;;;20.03;64.97;100503.41;5363552;32;34861;-78
2022/07/02 03:26:54;;;;;;;;;;;;;;;19.48;67.34;100502.19;5376798;32;34489;-71
2022/07/02 03:29:58;;;;;;;;;;;;;;;20.29;64.55;100517.41;5363336;32;35082;-72
2022/07/02 03:33:00;;;;;;;;;;;;;;;20.05;65.81;100537.97;5369915;32;34997;-75
2022/07/02 03:36:02;;;;;;;;;;;;;;;20.09;65.66;100534.06;5363948;32;34820;-76
2022/07/02 03:39:04;;;;;;;;;;;;;;;20.21;64.93;100517.97;5361338;32;34594;-71
2022/07/02 03:42:06;;;;;;;;;;;;;;;20.08;66.07;100514.53;5376173;32;33133;-77
2022/07/02 03:45:08;;;;;;;;;;;;;;;19.91;66.62;100526.53;5362605;32;45501;-71
2022/07/02 03:48:10;;;;;;;;;;;;;;;19.80;67.84;100536.28;5357916;32;34910;-72
2022/07/02 03:51:12;;;;;;;;;;;;;;;19.90;67.39;100538.16;5363339;32;36999;-76
2022/07/02 03:54:14;;;;;;;;;;;;;;;20.03;66.93;100556.75;5374427;32;34965;-72
2022/07/02 03:57:16;;;;;;;;;;;;;;;19.89;66.84;100565.78;5365407;32;36159;-78
2022/07/02 04:00:18;;;;;;;;;;;;;;;20.37;65.41;100549.69;5361830;32;34735;-77
2022/07/02 04:03:20;;;;;;;;;;;;;;;20.88;63.40;100559.94;5379424;32;35556;-78
2022/07/02 04:06:22;;;;;;;;;;;;;;;20.02;66.45;100558.53;5357581;32;36476;-76
2022/07/02 04:09:24;;;;;;;;;;;;;;;20.04;66.59;100563.78;5376000;32;34328;-78
2022/07/02 04:12:26;;;;;;;;;;;;;;;20.22;65.95;100574.84;5367328;32;36046;-79
2022/07/02 04:15:28;;;;;;;;;;;;;;;20.46;64.92;100580.16;5341717;32;35454;-71
2022/07/02 04:18:30;;;;;;;;;;;;;;;21.16;62.18;100582.63;5361854;32;34191;-76
2022/07/02 04:21:32;;;;;;;;;;;;;;;20.71;63.89;100589.78;5368627;32;35820;-71
2022/07/02 04:24:34;;;;;;;;;;;;;;;21.05;62.70;100591.50;5378447;32;34967;-72
2022/07/02 04:27:36;;;;;;;;;;;;;;;20.92;63.06;100593.44;5361650;32;32735;-72
2022/07/02 04:30:38;;;;;;;;;;;;;;;21.49;60.97;100603.16;5373500;32;43773;-78
2022/07/02 04:33:40;;;;;;;;;;;;;;;21.65;59.66;100588.53;5361521;32;34665;-70
2022/07/02 04:36:41;;;;;;;;;;;;;;;21.67;59.42;100607.97;5372124;32;34907;-71
2022/07/02 04:39:43;;;;;;;;;;;;;;;21.63;59.75;100607.38;5364404;32;35598;-70
2022/07/02 04:42:45;;;;;;;;;;;;;;;22.03;58.54;100612.97;5362858;32;34357;-71
2022/07/02 04:45:47;;;;;;;;;;;;;;;21.81;59.01;100608.53;5376479;32;35176;-73
2022/07/02 04:48:49;;;;;;;;;;;;;;;22.21;57.81;100597.19;5359982;32;34991;-71
2022/07/02 04:51:51;;;;;;;;;;;;;;;21.49;60.00;100619.19;5375339;32;34907;-77
2022/07/02 04:54:53;;;;;;;;;;;;;;;21.77;59.32;100624.97;5362921;32;34867;-79
2022/07/02 04:57:55;;;;;;;;;;;;;;;22.21;58.08;100633.84;5371041;32;34905;-72
2022/07/02 05:00:57;;;;;;;;;;;;;;;22.10;58.27;100648.13;5364262;32;33535;-77
2022/07/02 05:03:59;;;;;;;;;;;;;;;23.12;55.16;100635.84;5364226;32;35003;-77
2022/07/02 05:07:01;;;;;;;;;;;;;;;23.85;52.57;100631.16;5371943;32;35254;-71
2022/07/02 05:10:03;;;;;;;;;;;;;;;23.30;53.72;100644.09;5361820;32;33318;-70
2022/07/02 05:13:05;;;;;;;;;;;;;;;22.64;55.75;100644.44;5375232;32;35748;-76
2022/07/02 05:16:07;;;;;;;;;;;;;;;22.96;54.77;100655.94;5335896;32;44207;-77
2022/07/02 05:19:09;;;;;;;;;;;;;;;23.28;53.68;100660.31;5371992;32;35102;-78
2022/07/02 05:22:11;;;;;;;;;;;;;;;23.85;51.95;100671.41;5374585;32;34539;-76
2022/07/02 05:25:13;;;;;;;;;;;;;;;23.59;52.61;100685.28;5358437;32;35069;-77
2022/07/02 05:28:15;;;;;;;;;;;;;;;24.52;50.33;100694.78;5376724;32;35355;-71
2022/07/02 05:31:17;;;;;;;;;;;;;;;25.22;48.17;100693.53;5360483;32;34988;-81
2022/07/02 05:34:19;;;;;;;;;;;;;;;24.60;49.56;100713.72;5376018;32;34540;-75
2022/07/02 05:37:21;;;;;;;;;;;;;;;23.93;51.44;100711.81;5363934;32;34942;-71
2022/07/02 05:40:23;;;;;;;;;;;;;;;23.80;52.06;100714.75;5368495;32;34817;-71
2022/07/02 05:43:25;;;;;;;;;;;;;;;25.33;47.96;100712.19;5367031;32;35449;-77
2022/07/02 05:46:27;;;;;;;;;;;;;;;24.79;49.15;100729.84;5361776;32;34721;-71
2022/07/02 05:49:29;;;;;;;;;;;;;;;24.87;48.86;100725.59;5373353;32;36486;-76
2022/07/02 05:52:30;;;;;;;;;;;;;;;25.32;47.32;100725.81;5362448;32;35445;-78
2022/07/02 05:55:32;;;;;;;;;;;;;;;26.18;45.32;100734.44;5374211;32;34946;-71
2022/07/02 05:58:34;;;;;;;;;;;;;;;25.66;46.59;100731.47;5360644;32;36208;-71
2022/07/02 06:01:36;;;;;;;;;;;;;;;26.05;45.27;100734.81;5368066;32;34425;-77
2022/07/02 06:04:38;;;;;;;;;;;;;;;26.46;44.25;100740.62;5370810;32;44821;-77
2022/07/02 06:07:42;;;;;;;;;;;;;;;27.21;42.59;100738.41;5355686;32;35460;-70
2022/07/02 06:10:44;;;;;;;;;;;;;;;27.34;42.00;100733.44;5372856;32;34857;-72
2022/07/02 06:13:46;;;;;;;;;;;;;;;26.22;44.63;100737.69;5357669;32;35476;-79
2022/07/02 06:16:48;;;;;;;;;;;;;;;27.33;42.40;100731.75;5353302;32;37345;-70
2022/07/02 06:19:51;;;;;;;;;;;;;;;27.18;41.73;100730.66;5359585;32;34977;-72
2022/07/02 06:22:53;;;;;;;;;;;;;;;27.83;40.94;100733.69;5358142;32;34061;-78
2022/07/02 06:25:55;;;;;;;;;;;;;;;27.28;42.17;100720.56;5369328;32;34251;-81
2022/07/02 06:28:57;;;;;;;;;;;;;;;27.39;42.15;100731.09;5358922;32;34835;-71
2022/07/02 06:31:59;;;;;;;;;;;;;;;28.56;39.62;100712.22;5376676;32;34882;-78
2022/07/02 06:35:01;;;;;;;;;;;;;;;28.84;38.62;100722.69;5361024;32;34646;-78
2022/07/02 06:38:03;;;;;;;;;;;;;;;28.45;39.18;100720.66;5375174;32;34940;-76
2022/07/02 06:42:18;;;;;;;;;;;;;;;28.31;39.69;100724.03;5360125;32;35149;-77
2022/07/02 06:44:27;;;;;;;;;;;;;;;28.80;38.72;100721.37;5358994;32;35824;-77
2022/07/02 06:47:30;;;;;;;;;;;;;;;30.07;35.98;100718.59;5377744;32;34454;-77
2022/07/02 06:50:32;;;;;;;;;;;;;;;28.90;38.57;100729.28;5361015;32;36700;-80
2022/07/02 06:53:36;;;;;;;;;;;;;;;28.91;38.10;100721.00;5378580;32;34742;-71
2022/07/02 06:56:38;;;;;;;;;;;;;;;28.83;38.56;100721.84;5363995;32;34070;-77
2022/07/02 06:59:40;;;;;;;;;;;;;;;30.71;34.57;100721.91;5374058;32;34916;-72
2022/07/02 07:02:43;;;;;;;;;;;;;;;31.05;34.07;100719.78;5367634;32;35049;-71
2022/07/02 07:05:46;;;;;;;;;;;;;;;29.47;37.09;100729.19;5359979;32;34745;-72
2022/07/02 07:08:53;;;;;;;;;;;;;;;31.08;34.05;100725.66;5375395;32;36658;-80
2022/07/02 07:11:55;;;;;;;;;;;;;;;30.71;34.41;100726.50;5362571;32;35329;-77
2022/07/02 07:15:00;;;;;;;;;;;;;;;29.62;36.70;100741.84;5357366;32;35332;-77
2022/07/02 07:18:02;;;;;;;;;;;;;;;30.33;35.46;100737.28;5354797;32;35378;-79
2022/07/02 07:21:04;;;;;;;;;;;;;;;31.16;34.18;100738.28;5374188;32;35248;-71
2022/07/02 07:24:06;;;;;;;;;;;;;;;31.55;33.15;100733.47;5369389;32;35194;-71
2022/07/02 07:27:08;;;;;;;;;;;;;;;31.20;33.96;100747.75;5357003;32;44343;-81
2022/07/02 07:30:10;;;;;;;;;;;;;;;30.43;35.21;100754.16;5377051;32;33564;-72
2022/07/02 07:33:12;;;;;;;;;;;;;;;30.74;34.69;100764.12;5360982;32;34345;-77
2022/07/02 07:36:14;;;;;;;;;;;;;;;30.87;33.99;100767.09;5377120;32;34733;-71
2022/07/02 07:39:16;;;;;;;;;;;;;;;30.67;34.97;100766.75;5361447;32;36599;-72
2022/07/02 07:42:18;;;;;;;;;;;;;;;32.26;31.94;100752.75;5370992;32;35559;-80
2022/07/02 07:45:20;;;;;;;;;;;;;;;31.65;32.82;100759.53;5366804;32;35050;-71
2022/07/02 07:48:22;;;;;;;;;;;;;;;30.03;35.66;100757.94;5361682;32;34386;-80
2022/07/02 07:51:25;;;;;;;;;;;;;;;31.15;33.83;100764.59;5378491;32;35455;-72
2022/07/02 07:54:27;;;;;;;;;;;;;;;30.61;34.13;100770.13;5361872;32;36410;-78
2022/07/02 07:57:29;;;;;;;;;;;;;;;30.99;33.81;100767.50;5379832;32;35827;-78
2022/07/02 08:00:31;;;;;;;;;;;;;;;31.73;32.43;100768.41;5362182;32;35601;-78
2022/07/02 08:03:32;;;;;;;;;;;;;;;30.24;35.18;100765.47;5369080;32;35535;-79
2022/07/02 08:06:34;;;;;;;;;;;;;;;31.20;33.36;100778.47;5367576;32;34409;-79
2022/07/02 08:09:36;;;;;;;;;;;;;;;31.92;32.36;100777.03;5362139;32;34763;-75
2022/07/02 08:12:40;;;;;;;;;;;;;;;31.12;33.40;100772.28;5379116;32;48092;-72
2022/07/02 08:15:42;;;;;;;;;;;;;;;30.68;33.86;100781.16;5329550;32;36414;-78
2022/07/02 08:18:44;;;;;;;;;;;;;;;31.15;33.14;100782.75;5374830;32;34885;-73
2022/07/02 08:21:46;;;;;;;;;;;;;;;33.08;29.98;100767.81;5367191;32;34932;-72
2022/07/02 08:24:48;;;;;;;;;;;;;;;31.22;32.87;100776.41;5367581;32;35417;-74
2022/07/02 08:27:50;;;;;;;;;;;;;;;30.53;34.34;100770.22;5370387;32;34111;-70
2022/07/02 08:30:52;;;;;;;;;;;;;;;31.69;32.32;100763.56;5363050;32;34592;-72
2022/07/02 08:33:54;;;;;;;;;;;;;;;30.99;33.33;100770.19;5376788;32;33171;-72
2022/07/02 08:36:56;;;;;;;;;;;;;;;32.34;31.43;100774.44;5362629;32;35633;-73
2022/07/02 08:39:58;;;;;;;;;;;;;;;32.38;30.92;100768.59;5375314;32;34804;-71
2022/07/02 08:43:00;;;;;;;;;;;;;;;30.85;33.42;100762.84;5364521;32;34621;-71
2022/07/02 08:46:04;;;;;;;;;;;;;;;32.16;31.51;100765.00;5364819;32;36303;-81
2022/07/02 08:49:07;;;;;;;;;;;;;;;31.43;32.37;100755.84;5370375;32;34490;-70
2022/07/02 08:52:09;;;;;;;;;;;;;;;32.98;29.84;100756.44;5362278;32;44276;-72
2022/07/02 08:55:11;;;;;;;;;;;;;;;33.06;29.90;100756.28;5375726;32;35023;-72
2022/07/02 08:58:13;;;;;;;;;;;;;;;32.80;30.05;100767.78;5361914;32;36864;-70
2022/07/02 09:01:15;;;;;;;;;;;;;;;31.47;32.31;100759.88;5376234;32;35992;-81
2022/07/02 09:04:20;;;;;;;;;;;;;;;33.76;28.77;100755.28;5368480;32;35215;-78
2022/07/02 09:07:22;;;;;;;;;;;;;;;33.90;28.66;100759.75;5356528;32;34622;-79
2022/07/02 09:10:25;;;;;;;;;;;;;;;33.13;29.49;100754.47;5371767;32;34626;-79
2022/07/02 09:13:27;;;;;;;;;;;;;;;32.24;30.75;100756.72;5359162;32;34908;-74
2022/07/02 09:16:29;;;;;;;;;;;;;;;32.43;30.44;100758.84;5349833;32;34822;-71
2022/07/02 09:19:31;;;;;;;;;;;;;;;33.33;29.12;100749.13;5356787;32;34290;-80
2022/07/02 09:22:37;;;;;;;;;;;;;;;33.62;28.60;100748.06;5381684;32;35390;-72
2022/07/02 09:25:40;;;;;;;;;;;;;;;33.58;28.70;100741.34;5361211;32;45193;-78
2022/07/02 09:28:50;;;;;;;;;;;;;;;33.26;29.25;100742.81;5358410;32;34700;-79
2022/07/02 09:31:52;;;;;;;;;;;;;;;33.16;29.27;100743.16;5376182;32;34903;-73
2022/07/02 09:34:54;;;;;;;;;;;;;;;33.33;28.98;100741.81;5361314;32;34244;-81
2022/07/02 09:38:06;;;;;;;;;;;;;;;33.64;28.54;100735.94;5377231;32;35208;-77
2022/07/02 09:41:11;;;;;;;;;;;;;;;32.93;29.45;100745.31;5360406;32;43502;-79
2022/07/02 09:44:12;;;;;;;;;;;;;;;33.16;29.17;100737.69;5368661;32;35156;-79
2022/07/02 09:47:14;;;;;;;;;;;;;;;34.42;27.63;100727.44;5370990;32;35425;-73
2022/07/02 09:50:17;;;;;;;;;;;;;;;36.19;24.96;100729.19;5363460;32;35903;-79
2022/07/02 09:53:19;;;;;;;;;;;;;;;36.07;25.30;100735.37;5376288;32;35071;-81
2022/07/02 09:56:22;;;;;;;;;;;;;;;36.31;24.59;100731.00;5363524;32;35424;-74
2022/07/02 09:59:24;;;;;;;;;;;;;;;35.18;25.55;100738.78;5373969;32;34333;-79
2022/07/02 10:02:26;;;;;;;;;;;;;;;35.65;25.34;100736.78;5361493;32;35539;-72
2022/07/02 10:05:34;;;;;;;;;;;;;;;34.33;27.36;100748.59;5361976;32;36095;-73
2022/07/02 10:08:36;;;;;;;;;;;;;;;34.82;26.47;100746.56;5367629;32;34974;-71
2022/07/02 10:11:38;;;;;;;;;;;;;;;35.40;25.39;100739.34;5360967;32;44787;-79
2022/07/02 10:14:40;;;;;;;;;;;;;;;36.22;24.27;100743.28;5354990;32;34305;-73
2022/07/02 10:17:43;;;;;;;;;;;;;;;35.52;24.92;100745.03;5349795;32;35783;-72
2022/07/02 10:20:45;;;;;;;;;;;;;;;36.42;23.91;100747.81;5380121;32;34864;-82
2022/07/02 10:23:47;;;;;;;;;;;;;;;35.70;24.68;100747.09;5363530;32;35081;-72
2022/07/02 10:26:49;;;;;;;;;;;;;;;33.68;27.98;100745.41;5367556;32;34641;-72
2022/07/02 10:29:51;;;;;;;;;;;;;;;34.81;26.44;100740.25;5359925;32;35037;-81
2022/07/02 10:33:07;;;;;;;;;;;;;;;34.53;26.91;100745.09;5363941;32;34783;-81
2022/07/02 10:36:12;;;;;;;;;;;;;;;36.13;24.62;100741.00;5377221;32;45165;-73
2022/07/02 10:39:17;;;;;;;;;;;;;;;36.37;24.32;100731.19;5360030;32;35509;-72
2022/07/02 10:42:18;;;;;;;;;;;;;;;35.24;25.53;100742.56;5375125;32;34387;-80
2022/07/02 10:45:21;;;;;;;;;;;;;;;33.52;28.24;100732.09;5365307;32;36419;-72
2022/07/02 10:48:24;;;;;;;;;;;;;;;36.44;24.18;100738.31;5362257;32;34232;-79
2022/07/02 10:51:30;;;;;;;;;;;;;;;36.14;24.46;100745.44;5380803;32;34930;-80
2022/07/02 10:54:32;;;;;;;;;;;;;;;35.75;24.95;100728.16;5363082;32;34854;-79
2022/07/02 10:57:34;;;;;;;;;;;;;;;34.80;26.48;100729.56;5376219;32;34331;-72
2022/07/02 11:00:39;;;;;;;;;;;;;;;35.07;25.86;100730.41;5360683;32;34464;-72
2022/07/02 11:03:58;;;;;;;;;;;;;;;34.02;27.11;100726.47;5359136;32;44582;-80
2022/07/02 11:07:04;;;;;;;;;;;;;;;34.04;27.08;100722.47;5373334;32;36004;-71
2022/07/02 11:10:07;;;;;;;;;;;;;;;34.59;26.27;100720.53;5359353;32;34399;-80
2022/07/02 11:13:09;;;;;;;;;;;;;;;35.38;24.78;100727.81;5376476;32;45279;-72
2022/07/02 11:16:22;;;;;;;;;;;;;;;36.69;22.93;100727.38;5334990;32;35030;-79
2022/07/02 11:19:25;;;;;;;;;;;;;;;35.14;25.13;100725.75;5374234;32;34430;-80
2022/07/02 11:22:30;;;;;;;;;;;;;;;35.42;24.68;100723.62;5371503;32;36461;-71
2022/07/02 11:25:33;;;;;;;;;;;;;;;37.34;22.29;100727.88;5360973;32;34551;-79
2022/07/02 11:28:35;;;;;;;;;;;;;;;36.48;23.17;100712.19;5375460;32;34999;-72
2022/07/02 11:31:38;;;;;;;;;;;;;;;37.38;22.15;100728.28;5361295;32;43930;-77
2022/07/02 11:34:40;;;;;;;;;;;;;;;37.25;22.65;100718.25;5377180;32;35732;-79
2022/07/02 11:37:45;;;;;;;;;;;;;;;36.29;23.48;100718.63;5361660;32;34638;-71
2022/07/02 11:40:48;;;;;;;;;;;;;;;36.00;23.95;100725.50;5371998;32;35368;-72
2022/07/02 11:43:51;;;;;;;;;;;;;;;37.09;22.47;100707.87;5366282;32;35881;-81
2022/07/02 11:46:54;;;;;;;;;;;;;;;37.13;22.93;100715.44;5364627;32;34735;-72
2022/07/02 11:49:56;;;;;;;;;;;;;;;35.32;24.67;100716.91;5374669;32;34933;-72
2022/07/02 11:52:59;;;;;;;;;;;;;;;37.28;22.04;100711.47;5360821;32;36915;-71
2022/07/02 11:56:07;;;;;;;;;;;;;;;34.81;25.57;100712.94;5377341;32;36238;-78
2022/07/02 11:59:10;;;;;;;;;;;;;;;36.80;23.00;100710.25;5362066;32;44560;-71
2022/07/02 12:02:12;;;;;;;;;;;;;;;34.97;25.18;100703.50;5368339;32;35517;-72
2022/07/02 12:05:15;;;;;;;;;;;;;;;34.60;25.88;100713.19;5371070;32;34518;-71
2022/07/02 12:08:17;;;;;;;;;;;;;;;33.34;27.65;100712.69;5360654;32;34741;-82
2022/07/02 12:11:20;;;;;;;;;;;;;;;32.62;28.70;100711.09;5377140;32;35382;-72
2022/07/02 12:14:25;;;;;;;;;;;;;;;31.92;29.52;100719.97;5345874;32;33878;-72
2022/07/02 12:17:28;;;;;;;;;;;;;;;32.34;28.79;100711.91;5355556;32;36515;-78
2022/07/02 12:20:30;;;;;;;;;;;;;;;33.01;27.89;100702.41;5365833;32;34888;-70
2022/07/02 12:23:40;;;;;;;;;;;;;;;32.08;29.37;100708.88;5349279;32;35566;-77
2022/07/02 12:26:43;;;;;;;;;;;;;;;31.34;30.25;100702.66;5375295;32;45993;-71
2022/07/02 12:29:58;;;;;;;;;;;;;;;31.42;30.65;100702.56;5361879;32;34830;-72
2022/07/02 12:33:00;;;;;;;;;;;;;;;32.35;29.40;100696.41;5375416;32;34908;-72
2022/07/02 12:36:02;;;;;;;;;;;;;;;32.60;28.67;100686.81;5363258;32;35114;-78
2022/07/02 12:39:04;;;;;;;;;;;;;;;33.15;28.08;100687.84;5370759;32;35183;-71
2022/07/02 12:42:16;;;;;;;;;;;;;;;32.67;28.70;100686.03;5368338;32;35781;-74
2022/07/02 12:45:22;;;;;;;;;;;;;;;31.96;29.55;100694.09;5361606;32;34953;-78
2022/07/02 12:48:26;;;;;;;;;;;;;;;32.77;28.51;100673.72;5376270;32;35867;-77
2022/07/02 12:51:28;;;;;;;;;;;;;;;32.85;28.22;100686.38;5363514;32;35465;-79
2022/07/02 12:54:34;;;;;;;;;;;;;;;32.35;28.81;100685.53;5376830;32;34880;-71
2022/07/02 12:57:36;;;;;;;;;;;;;;;32.62;28.70;100681.16;5362053;32;34860;-70
2022/07/02 13:00:41;;;;;;;;;;;;;;;32.77;28.51;100671.00;5363226;32;43445;-78
2022/07/02 13:03:44;;;;;;;;;;;;;;;32.49;29.29;100670.16;5377733;32;35812;-78
2022/07/02 13:06:46;;;;;;;;;;;;;;;32.59;29.10;100671.53;5365199;32;35203;-72
2022/07/02 13:09:48;;;;;;;;;;;;;;;33.20;27.77;100668.19;5374960;32;35432;-72
2022/07/02 13:12:50;;;;;;;;;;;;;;;33.05;27.81;100659.31;5358437;32;34531;-71
2022/07/02 13:15:51;;;;;;;;;;;;;;;33.11;27.46;100667.53;5346219;32;36918;-77
2022/07/02 13:18:53;;;;;;;;;;;;;;;32.37;28.75;100653.53;5359236;32;36704;-79
2022/07/02 13:21:57;;;;;;;;;;;;;;;31.97;29.27;100674.03;5366327;32;35012;-71
2022/07/02 13:25:00;;;;;;;;;;;;;;;31.32;30.47;100659.41;5372802;32;36458;-72
2022/07/02 13:28:02;;;;;;;;;;;;;;;32.22;29.13;100663.63;5361567;32;35503;-72
2022/07/02 13:31:04;;;;;;;;;;;;;;;31.79;29.70;100655.41;5377435;32;34938;-78
2022/07/02 13:34:06;;;;;;;;;;;;;;;31.60;30.38;100654.13;5360566;32;34142;-78
2022/07/02 13:37:08;;;;;;;;;;;;;;;31.56;30.38;100644.69;5374976;32;45040;-72
2022/07/02 13:40:11;;;;;;;;;;;;;;;31.22;31.10;100648.78;5347905;32;34861;-73
2022/07/02 13:43:13;;;;;;;;;;;;;;;30.78;31.54;100664.22;5360964;32;34655;-79
2022/07/02 13:46:14;;;;;;;;;;;;;;;30.78;31.65;100658.78;5378935;32;35672;-80
2022/07/02 13:49:17;;;;;;;;;;;;;;;31.76;30.19;100658.50;5361844;32;35073;-70
2022/07/02 13:52:19;;;;;;;;;;;;;;;32.04;29.95;100653.19;5375835;32;35039;-81
2022/07/02 13:55:21;;;;;;;;;;;;;;;32.33;28.96;100647.66;5361449;32;35513;-72
2022/07/02 13:58:23;;;;;;;;;;;;;;;30.86;31.26;100672.28;5370609;32;34286;-80
2022/07/02 14:01:27;;;;;;;;;;;;;;;31.01;30.90;100654.97;5367142;32;34473;-72
2022/07/02 14:04:29;;;;;;;;;;;;;;;31.81;29.85;100656.06;5367218;32;33880;-72
2022/07/02 14:07:31;;;;;;;;;;;;;;;31.29;30.44;100646.19;5377994;32;35607;-77
2022/07/02 14:10:33;;;;;;;;;;;;;;;30.89;31.12;100642.91;5362122;32;34963;-70
2022/07/02 14:13:35;;;;;;;;;;;;;;;30.36;31.89;100649.31;5377306;32;35104;-78
2022/07/02 14:16:37;;;;;;;;;;;;;;;30.82;31.54;100644.69;5330960;32;43729;-72
2022/07/02 14:19:39;;;;;;;;;;;;;;;30.03;32.77;100651.41;5374586;32;35504;-72
2022/07/02 14:22:44;;;;;;;;;;;;;;;31.09;31.20;100645.91;5373835;32;35242;-72
2022/07/02 14:25:46;;;;;;;;;;;;;;;31.30;30.70;100638.91;5362210;32;36167;-72
2022/07/02 14:28:50;;;;;;;;;;;;;;;31.23;30.48;100636.06;5376268;32;34240;-78
2022/07/02 14:31:52;;;;;;;;;;;;;;;30.65;31.44;100640.41;5356312;32;34972;-80
2022/07/02 14:34:55;;;;;;;;;;;;;;;31.30;30.37;100633.47;5378404;32;34390;-72
2022/07/02 14:37:57;;;;;;;;;;;;;;;31.38;30.42;100633.37;5362267;32;35666;-81
2022/07/02 14:44:20;;;;;;;;;;;;;;;31.98;29.13;100624.91;5375322;32;34876;-79
2022/07/02 14:47:22;;;;;;;;;;;;;;;30.59;30.82;100633.00;5362071;32;34873;-71
2022/07/02 14:50:23;;;;;;;;;;;;;;;31.49;28.85;100641.03;5376263;32;36091;-74
2022/07/02 14:53:25;;;;;;;;;;;;;;;31.21;29.45;100638.13;5362739;32;35021;-73
2022/07/02 14:56:27;;;;;;;;;;;;;;;31.46;28.84;100633.28;5376337;32;34026;-72
2022/07/02 14:59:30;;;;;;;;;;;;;;;30.63;30.13;100631.62;5363864;32;34319;-79
2022/07/02 15:02:32;;;;;;;;;;;;;;;31.09;29.51;100632.31;5367756;32;34564;-73
2022/07/02 15:05:35;;;;;;;;;;;;;;;31.62;28.81;100624.03;5374256;32;34992;-80
2022/07/02 15:08:37;;;;;;;;;;;;;;;31.99;28.36;100620.31;5361915;32;34713;-80
2022/07/02 15:11:39;;;;;;;;;;;;;;;32.05;28.49;100624.97;5375906;32;48140;-70
2022/07/02 15:18:06;;;;;;;;;;;;;;;31.05;29.63;100616.63;5362345;32;35242;-71
2022/07/02 15:21:18;;;;;;;;;;;;;;;31.15;29.31;100623.44;5374673;32;44245;-77
2022/07/02 15:24:23;;;;;;;;;;;;;;;31.77;28.12;100620.25;5361206;32;35095;-80
2022/07/02 15:27:25;;;;;;;;;;;;;;;31.43;28.42;100617.34;5378654;32;34690;-78
2022/07/02 15:30:33;;;;;;;;;;;;;;;31.17;28.86;100604.22;5364879;32;34423;-77
2022/07/02 15:33:36;;;;;;;;;;;;;;;31.77;28.14;100614.81;5376329;32;35880;-71
2022/07/02 15:36:38;;;;;;;;;;;;;;;31.42;28.75;100605.63;5355301;32;47530;-79
2022/07/02 15:39:46;;;;;;;;;;;;;;;31.27;29.16;100618.41;5361886;32;35432;-80
2022/07/02 15:42:48;;;;;;;;;;;;;;;31.59;28.43;100617.13;5376415;32;34907;-80
2022/07/02 15:45:51;;;;;;;;;;;;;;;31.01;29.45;100613.44;5362812;32;34827;-77
2022/07/02 15:48:54;;;;;;;;;;;;;;;31.27;28.90;100611.09;5375415;32;34720;-72